sensor_id;sensor_type;location;lat;lon;timestamp;pressure;altitude;pressure_sealevel;temperature;humidity
54994;BME280;40891;47.242;8.648;2023-12-20T00:01:23;96650.97;;;4.30;100.00
54994;BME280;40891;47.242;8.648;2023-12-20T00:03:48;96648.97;;;4.31;100.00
54994;BME280;40891;47.242;8.648;2023-12-20T00:06:13;96644.69;;;4.26;100.00
54994;BME280;40891;47.242;8.648;2023-12-20T00:08:39;96637.13;;;4.37;100.00
54994;BME280;40891;47.242;8.648;2023-12-20T00:11:04;96645.47;;;4.27;100.00
54994;BME280;40891;47.242;8.648;2023-12-20T00:13:29;96641.97;;;4.19;100.00
54994;BME280;40891;47.242;8.648;2023-12-20T00:15:55;96626.69;;;4.14;100.00
54994;BME280;40891;47.242;8.648;2023-12-20T00:18:20;96634.19;;;4.10;100.00
54994;BME280;40891;47.242;8.648;2023-12-20T00:20:45;96647.97;;;4.07;100.00
54994;BME280;40891;47.242;8.648;2023-12-20T00:23:10;96647.22;;;4.03;100.00
54994;BME280;40891;47.242;8.648;2023-12-20T00:25:36;96650.00;;;3.99;100.00
54994;BME280;40891;47.242;8.648;2023-12-20T00:28:01;96666.88;;;4.01;100.00
54994;BME280;40891;47.242;8.648;2023-12-20T00:30:27;96673.97;;;3.95;100.00
54994;BME280;40891;47.242;8.648;2023-12-20T00:32:53;96663.81;;;3.92;100.00
54994;BME280;40891;47.242;8.648;2023-12-20T00:35:18;96648.44;;;3.98;100.00
54994;BME280;40891;47.242;8.648;2023-12-20T00:37:43;96638.16;;;4.02;100.00
54994;BME280;40891;47.242;8.648;2023-12-20T00:40:09;96636.63;;;3.98;100.00
54994;BME280;40891;47.242;8.648;2023-12-20T00:42:35;96631.13;;;4.01;100.00
54994;BME280;40891;47.242;8.648;2023-12-20T00:45:03;96623.75;;;4.36;100.00
54994;BME280;40891;47.242;8.648;2023-12-20T00:47:30;96613.47;;;4.47;100.00
54994;BME280;40891;47.242;8.648;2023-12-20T00:49:55;96609.13;;;4.46;100.00
54994;BME280;40891;47.242;8.648;2023-12-20T00:52:21;96610.28;;;4.52;100.00
54994;BME280;40891;47.242;8.648;2023-12-20T00:54:47;96610.34;;;4.45;100.00
54994;BME280;40891;47.242;8.648;2023-12-20T00:57:13;96615.06;;;4.41;100.00
54994;BME280;40891;47.242;8.648;2023-12-20T00:59:38;96614.63;;;4.46;100.00
54994;BME280;40891;47.242;8.648;2023-12-20T01:02:03;96598.59;;;4.37;100.00
54994;BME280;40891;47.242;8.648;2023-12-20T01:04:29;96592.34;;;4.33;100.00
54994;BME280;40891;47.242;8.648;2023-12-20T01:06:54;96605.81;;;4.21;100.00
54994;BME280;40891;47.242;8.648;2023-12-20T01:09:19;96610.13;;;4.22;100.00
54994;BME280;40891;47.242;8.648;2023-12-20T01:11:45;96624.28;;;4.20;100.00
54994;BME280;40891;47.242;8.648;2023-12-20T01:14:13;96621.56;;;4.17;100.00
54994;BME280;40891;47.242;8.648;2023-12-20T01:16:38;96618.81;;;4.17;100.00
54994;BME280;40891;47.242;8.648;2023-12-20T01:19:03;96624.78;;;4.11;100.00
54994;BME280;40891;47.242;8.648;2023-12-20T01:21:29;96604.06;;;4.41;100.00
54994;BME280;40891;47.242;8.648;2023-12-20T01:23:54;96601.63;;;4.50;100.00
54994;BME280;40891;47.242;8.648;2023-12-20T01:26:19;96603.56;;;4.53;100.00
54994;BME280;40891;47.242;8.648;2023-12-20T01:28:44;96600.84;;;4.49;99.97
54994;BME280;40891;47.242;8.648;2023-12-20T01:31:10;96596.44;;;4.59;94.81
54994;BME280;40891;47.242;8.648;2023-12-20T01:33:35;96595.22;;;4.63;96.80
54994;BME280;40891;47.242;8.648;2023-12-20T01:36:00;96590.94;;;4.59;98.00
54994;BME280;40891;47.242;8.648;2023-12-20T01:38:26;96597.63;;;4.58;97.24
54994;BME280;40891;47.242;8.648;2023-12-20T01:40:51;96616.16;;;4.54;98.17
54994;BME280;40891;47.242;8.648;2023-12-20T01:43:16;96610.72;;;4.47;100.00
54994;BME280;40891;47.242;8.648;2023-12-20T01:45:42;96598.19;;;4.39;100.00
54994;BME280;40891;47.242;8.648;2023-12-20T01:48:08;96606.88;;;4.34;100.00
54994;BME280;40891;47.242;8.648;2023-12-20T01:50:35;96608.47;;;4.35;100.00
54994;BME280;40891;47.242;8.648;2023-12-20T01:53:02;96615.13;;;4.34;100.00
54994;BME280;40891;47.242;8.648;2023-12-20T01:55:30;96605.47;;;4.59;100.00
54994;BME280;40891;47.242;8.648;2023-12-20T01:57:57;96597.09;;;4.70;100.00
54994;BME280;40891;47.242;8.648;2023-12-20T02:00:23;96610.22;;;4.59;100.00
54994;BME280;40891;47.242;8.648;2023-12-20T02:02:50;96616.22;;;4.43;100.00
54994;BME280;40891;47.242;8.648;2023-12-20T02:05:18;96611.59;;;4.37;100.00
54994;BME280;40891;47.242;8.648;2023-12-20T02:07:43;96614.88;;;4.62;100.00
54994;BME280;40891;47.242;8.648;2023-12-20T02:10:08;96603.97;;;4.51;100.00
54994;BME280;40891;47.242;8.648;2023-12-20T02:12:34;96592.91;;;4.58;100.00
54994;BME280;40891;47.242;8.648;2023-12-20T02:14:59;96599.22;;;4.55;100.00
54994;BME280;40891;47.242;8.648;2023-12-20T02:17:25;96592.97;;;4.51;100.00
54994;BME280;40891;47.242;8.648;2023-12-20T02:19:51;96603.19;;;4.51;100.00
54994;BME280;40891;47.242;8.648;2023-12-20T02:22:16;96592.78;;;4.69;100.00
54994;BME280;40891;47.242;8.648;2023-12-20T02:24:41;96601.53;;;4.57;100.00
54994;BME280;40891;47.242;8.648;2023-12-20T02:27:07;96591.75;;;4.56;100.00
54994;BME280;40891;47.242;8.648;2023-12-20T02:29:34;96590.44;;;4.67;100.00
54994;BME280;40891;47.242;8.648;2023-12-20T02:31:59;96581.66;;;4.79;100.00
54994;BME280;40891;47.242;8.648;2023-12-20T02:34:24;96588.03;;;4.73;100.00
54994;BME280;40891;47.242;8.648;2023-12-20T02:36:50;96582.53;;;4.73;100.00
54994;BME280;40891;47.242;8.648;2023-12-20T02:39:15;96585.22;;;4.76;100.00
54994;BME280;40891;47.242;8.648;2023-12-20T02:41:41;96593.00;;;4.85;100.00
54994;BME280;40891;47.242;8.648;2023-12-20T02:44:06;96588.97;;;4.93;100.00
54994;BME280;40891;47.242;8.648;2023-12-20T02:46:31;96581.53;;;4.90;100.00
54994;BME280;40891;47.242;8.648;2023-12-20T02:48:56;96584.81;;;4.78;100.00
54994;BME280;40891;47.242;8.648;2023-12-20T02:51:22;96584.00;;;4.81;100.00
54994;BME280;40891;47.242;8.648;2023-12-20T02:53:47;96593.78;;;4.86;100.00
54994;BME280;40891;47.242;8.648;2023-12-20T02:56:12;96590.28;;;4.81;100.00
54994;BME280;40891;47.242;8.648;2023-12-20T02:58:39;96596.00;;;4.98;100.00
54994;BME280;40891;47.242;8.648;2023-12-20T03:01:05;96600.00;;;4.93;100.00
54994;BME280;40891;47.242;8.648;2023-12-20T03:03:30;96610.00;;;4.76;100.00
54994;BME280;40891;47.242;8.648;2023-12-20T03:05:56;96608.91;;;4.70;100.00
54994;BME280;40891;47.242;8.648;2023-12-20T03:08:21;96613.34;;;4.61;100.00
54994;BME280;40891;47.242;8.648;2023-12-20T03:10:46;96612.50;;;4.64;100.00
54994;BME280;40891;47.242;8.648;2023-12-20T03:13:12;96614.06;;;4.65;100.00
54994;BME280;40891;47.242;8.648;2023-12-20T03:15:37;96612.41;;;4.71;100.00
54994;BME280;40891;47.242;8.648;2023-12-20T03:18:03;96610.66;;;4.91;100.00
54994;BME280;40891;47.242;8.648;2023-12-20T03:20:28;96618.38;;;5.03;100.00
54994;BME280;40891;47.242;8.648;2023-12-20T03:22:53;96611.94;;;5.17;100.00
54994;BME280;40891;47.242;8.648;2023-12-20T03:25:19;96612.72;;;5.17;100.00
54994;BME280;40891;47.242;8.648;2023-12-20T03:27:44;96618.97;;;5.21;100.00
54994;BME280;40891;47.242;8.648;2023-12-20T03:30:09;96617.28;;;5.31;100.00
54994;BME280;40891;47.242;8.648;2023-12-20T03:32:35;96621.81;;;5.14;100.00
54994;BME280;40891;47.242;8.648;2023-12-20T03:35:00;96623.00;;;5.13;100.00
54994;BME280;40891;47.242;8.648;2023-12-20T03:37:26;96619.00;;;5.18;100.00
54994;BME280;40891;47.242;8.648;2023-12-20T03:39:51;96612.72;;;5.17;100.00
54994;BME280;40891;47.242;8.648;2023-12-20T03:42:16;96609.59;;;5.15;100.00
54994;BME280;40891;47.242;8.648;2023-12-20T03:44:41;96615.84;;;5.19;100.00
54994;BME280;40891;47.242;8.648;2023-12-20T03:47:07;96617.41;;;5.20;100.00
54994;BME280;40891;47.242;8.648;2023-12-20T03:49:32;96614.97;;;5.26;100.00
54994;BME280;40891;47.242;8.648;2023-12-20T03:51:58;96612.63;;;5.24;100.00
54994;BME280;40891;47.242;8.648;2023-12-20T03:54:24;96610.69;;;5.21;100.00
54994;BME280;40891;47.242;8.648;2023-12-20T03:56:49;96600.53;;;5.15;100.00
54994;BME280;40891;47.242;8.648;2023-12-20T03:59:14;96605.31;;;5.11;100.00
54994;BME280;40891;47.242;8.648;2023-12-20T04:01:43;96608.91;;;5.08;100.00
54994;BME280;40891;47.242;8.648;2023-12-20T04:04:10;96613.66;;;5.04;100.00
54994;BME280;40891;47.242;8.648;2023-12-20T04:06:35;96609.41;;;4.99;100.00
54994;BME280;40891;47.242;8.648;2023-12-20T04:09:01;96615.34;;;4.94;100.00
54994;BME280;40891;47.242;8.648;2023-12-20T04:11:26;96619.34;;;4.90;100.00
54994;BME280;40891;47.242;8.648;2023-12-20T04:13:51;96628.81;;;4.85;100.00
54994;BME280;40891;47.242;8.648;2023-12-20T04:16:17;96630.44;;;4.79;100.00
54994;BME280;40891;47.242;8.648;2023-12-20T04:18:42;96642.63;;;4.81;100.00
54994;BME280;40891;47.242;8.648;2023-12-20T04:21:07;96639.88;;;4.81;100.00
54994;BME280;40891;47.242;8.648;2023-12-20T04:23:33;96633.56;;;4.81;100.00
54994;BME280;40891;47.242;8.648;2023-12-20T04:25:58;96630.50;;;4.75;100.00
54994;BME280;40891;47.242;8.648;2023-12-20T04:28:23;96642.63;;;4.81;100.00
54994;BME280;40891;47.242;8.648;2023-12-20T04:30:49;96650.50;;;4.79;100.00
54994;BME280;40891;47.242;8.648;2023-12-20T04:33:14;96650.44;;;4.87;100.00
54994;BME280;40891;47.242;8.648;2023-12-20T04:35:40;96655.16;;;4.86;100.00
54994;BME280;40891;47.242;8.648;2023-12-20T04:38:06;96655.91;;;4.90;100.00
54994;BME280;40891;47.242;8.648;2023-12-20T04:40:31;96665.69;;;4.95;100.00
54994;BME280;40891;47.242;8.648;2023-12-20T04:42:57;96661.75;;;4.96;100.00
54994;BME280;40891;47.242;8.648;2023-12-20T04:45:22;96654.69;;;4.95;100.00
54994;BME280;40891;47.242;8.648;2023-12-20T04:47:49;96670.75;;;5.00;100.00
54994;BME280;40891;47.242;8.648;2023-12-20T04:50:15;96664.06;;;5.01;100.00
54994;BME280;40891;47.242;8.648;2023-12-20T04:52:41;96666.03;;;5.04;100.00
54994;BME280;40891;47.242;8.648;2023-12-20T04:55:06;96672.69;;;5.06;100.00
54994;BME280;40891;47.242;8.648;2023-12-20T04:57:32;96677.69;;;5.15;100.00
54994;BME280;40891;47.242;8.648;2023-12-20T04:59:57;96684.38;;;5.17;100.00
54994;BME280;40891;47.242;8.648;2023-12-20T05:02:22;96678.44;;;5.19;100.00
54994;BME280;40891;47.242;8.648;2023-12-20T05:04:48;96679.22;;;5.19;100.00
54994;BME280;40891;47.242;8.648;2023-12-20T05:07:13;96679.56;;;5.25;100.00
54994;BME280;40891;47.242;8.648;2023-12-20T05:09:39;96688.22;;;5.23;100.00
54994;BME280;40891;47.242;8.648;2023-12-20T05:12:04;96688.19;;;5.27;100.00
54994;BME280;40891;47.242;8.648;2023-12-20T05:14:30;96698.41;;;5.30;100.00
54994;BME280;40891;47.242;8.648;2023-12-20T05:16:56;96694.78;;;5.36;100.00
54994;BME280;40891;47.242;8.648;2023-12-20T05:19:21;96697.56;;;5.36;100.00
54994;BME280;40891;47.242;8.648;2023-12-20T05:21:47;96686.34;;;5.50;100.00
54994;BME280;40891;47.242;8.648;2023-12-20T05:24:12;96686.31;;;5.54;100.00
54994;BME280;40891;47.242;8.648;2023-12-20T05:26:37;96686.63;;;5.60;100.00
54994;BME280;40891;47.242;8.648;2023-12-20T05:29:03;96696.41;;;5.68;100.00
54994;BME280;40891;47.242;8.648;2023-12-20T05:31:28;96690.72;;;5.78;100.00
54994;BME280;40891;47.242;8.648;2023-12-20T05:33:53;96691.56;;;5.75;100.00
54994;BME280;40891;47.242;8.648;2023-12-20T05:36:19;96691.47;;;5.86;100.00
54994;BME280;40891;47.242;8.648;2023-12-20T05:38:44;96689.44;;;5.90;100.00
54994;BME280;40891;47.242;8.648;2023-12-20T05:41:10;96688.19;;;5.94;100.00
54994;BME280;40891;47.242;8.648;2023-12-20T05:43:35;96679.50;;;5.96;100.00
54994;BME280;40891;47.242;8.648;2023-12-20T05:46:00;96679.50;;;5.96;100.00
54994;BME280;40891;47.242;8.648;2023-12-20T05:48:26;96687.00;;;5.95;100.00
54994;BME280;40891;47.242;8.648;2023-12-20T05:50:51;96696.44;;;5.98;100.00
54994;BME280;40891;47.242;8.648;2023-12-20T05:53:16;96684.03;;;6.09;100.00
54994;BME280;40891;47.242;8.648;2023-12-20T05:55:42;96680.13;;;6.07;100.00
54994;BME280;40891;47.242;8.648;2023-12-20T05:58:07;96692.75;;;6.08;100.00
54994;BME280;40891;47.242;8.648;2023-12-20T06:00:33;96694.38;;;6.02;100.00
54994;BME280;40891;47.242;8.648;2023-12-20T06:02:58;96704.28;;;5.99;100.00
54994;BME280;40891;47.242;8.648;2023-12-20T06:05:23;96704.63;;;6.01;100.00
54994;BME280;40891;47.242;8.648;2023-12-20T06:07:49;96708.19;;;6.02;100.00
54994;BME280;40891;47.242;8.648;2023-12-20T06:10:16;96708.25;;;5.98;100.00
54994;BME280;40891;47.242;8.648;2023-12-20T06:12:41;96705.06;;;6.00;100.00
54994;BME280;40891;47.242;8.648;2023-12-20T06:15:07;96705.44;;;6.02;100.00
54994;BME280;40891;47.242;8.648;2023-12-20T06:17:32;96708.97;;;6.02;100.00
54994;BME280;40891;47.242;8.648;2023-12-20T06:19:58;96709.75;;;6.03;100.00
54994;BME280;40891;47.242;8.648;2023-12-20T06:22:23;96709.50;;;5.94;100.00
54994;BME280;40891;47.242;8.648;2023-12-20T06:24:48;96720.19;;;5.88;100.00
54994;BME280;40891;47.242;8.648;2023-12-20T06:27:14;96708.81;;;5.83;100.00
54994;BME280;40891;47.242;8.648;2023-12-20T06:29:39;96709.25;;;5.78;100.00
54994;BME280;40891;47.242;8.648;2023-12-20T06:32:06;96713.09;;;5.87;100.00
54994;BME280;40891;47.242;8.648;2023-12-20T06:34:31;96700.44;;;5.93;100.00
54994;BME280;40891;47.242;8.648;2023-12-20T06:36:56;96708.28;;;5.95;100.00
54994;BME280;40891;47.242;8.648;2023-12-20T06:39:22;96713.59;;;6.09;100.00
54994;BME280;40891;47.242;8.648;2023-12-20T06:41:47;96707.16;;;6.19;100.00
54994;BME280;40891;47.242;8.648;2023-12-20T06:44:12;96710.72;;;6.20;100.00
54994;BME280;40891;47.242;8.648;2023-12-20T06:46:37;96708.09;;;6.09;100.00
54994;BME280;40891;47.242;8.648;2023-12-20T06:49:03;96705.44;;;6.02;100.00
54994;BME280;40891;47.242;8.648;2023-12-20T06:51:28;96716.81;;;6.04;100.00
54994;BME280;40891;47.242;8.648;2023-12-20T06:53:53;96717.25;;;6.02;100.00
54994;BME280;40891;47.242;8.648;2023-12-20T06:56:19;96716.47;;;6.02;100.00
54994;BME280;40891;47.242;8.648;2023-12-20T06:58:44;96727.88;;;6.04;100.00
54994;BME280;40891;47.242;8.648;2023-12-20T07:01:14;96714.13;;;6.00;100.00
54994;BME280;40891;47.242;8.648;2023-12-20T07:03:40;96726.00;;;5.97;100.00
54994;BME280;40891;47.242;8.648;2023-12-20T07:06:06;96740.97;;;5.96;100.00
54994;BME280;40891;47.242;8.648;2023-12-20T07:08:31;96734.34;;;5.94;100.00
54994;BME280;40891;47.242;8.648;2023-12-20T07:10:56;96735.97;;;5.88;100.00
54994;BME280;40891;47.242;8.648;2023-12-20T07:13:22;96739.94;;;5.83;100.00
54994;BME280;40891;47.242;8.648;2023-12-20T07:15:48;96741.97;;;5.79;100.00
54994;BME280;40891;47.242;8.648;2023-12-20T07:18:13;96736.47;;;5.76;100.00
54994;BME280;40891;47.242;8.648;2023-12-20T07:20:39;96741.84;;;5.90;100.00
54994;BME280;40891;47.242;8.648;2023-12-20T07:23:04;96744.75;;;5.76;100.00
54994;BME280;40891;47.242;8.648;2023-12-20T07:25:29;96742.31;;;5.81;100.00
54994;BME280;40891;47.242;8.648;2023-12-20T07:27:57;96743.47;;;5.84;100.00
54994;BME280;40891;47.242;8.648;2023-12-20T07:30:23;96742.72;;;5.80;100.00
54994;BME280;40891;47.242;8.648;2023-12-20T07:32:48;96749.53;;;5.72;100.00
54994;BME280;40891;47.242;8.648;2023-12-20T07:35:15;96746.78;;;5.72;100.00
54994;BME280;40891;47.242;8.648;2023-12-20T07:37:40;96758.50;;;5.79;100.00
54994;BME280;40891;47.242;8.648;2023-12-20T07:40:06;96762.50;;;5.75;100.00
54994;BME280;40891;47.242;8.648;2023-12-20T07:42:32;96760.50;;;5.75;100.00
54994;BME280;40891;47.242;8.648;2023-12-20T07:44:58;96764.22;;;5.62;100.00
54994;BME280;40891;47.242;8.648;2023-12-20T07:47:23;96757.88;;;5.65;100.00
54994;BME280;40891;47.242;8.648;2023-12-20T07:49:50;96757.16;;;5.61;100.00
54994;BME280;40891;47.242;8.648;2023-12-20T07:52:17;96760.72;;;5.58;100.00
54994;BME280;40891;47.242;8.648;2023-12-20T07:54:43;96763.50;;;5.58;100.00
54994;BME280;40891;47.242;8.648;2023-12-20T07:57:08;96768.63;;;5.56;100.00
54994;BME280;40891;47.242;8.648;2023-12-20T07:59:35;96773.38;;;5.51;100.00
54994;BME280;40891;47.242;8.648;2023-12-20T08:02:01;96779.75;;;5.48;100.00
54994;BME280;40891;47.242;8.648;2023-12-20T08:04:26;96783.69;;;5.47;100.00
54994;BME280;40891;47.242;8.648;2023-12-20T08:06:51;96784.84;;;5.50;100.00
54994;BME280;40891;47.242;8.648;2023-12-20T08:09:16;96795.78;;;5.61;100.00
54994;BME280;40891;47.242;8.648;2023-12-20T08:11:46;96802.81;;;5.65;100.00
54994;BME280;40891;47.242;8.648;2023-12-20T08:14:11;96803.63;;;5.62;100.00
54994;BME280;40891;47.242;8.648;2023-12-20T08:16:36;96797.31;;;5.62;100.00
54994;BME280;40891;47.242;8.648;2023-12-20T08:19:02;96793.78;;;5.61;100.00
54994;BME280;40891;47.242;8.648;2023-12-20T08:21:27;96796.50;;;5.65;100.00
54994;BME280;40891;47.242;8.648;2023-12-20T08:23:52;96796.06;;;5.70;100.00
54994;BME280;40891;47.242;8.648;2023-12-20T08:26:21;96789.31;;;5.74;100.00
54994;BME280;40891;47.242;8.648;2023-12-20T08:28:50;96785.69;;;5.81;100.00
54994;BME280;40891;47.242;8.648;2023-12-20T08:31:16;96780.84;;;5.92;100.00
54994;BME280;40891;47.242;8.648;2023-12-20T08:33:46;96778.94;;;5.89;100.00
54994;BME280;40891;47.242;8.648;2023-12-20T08:36:12;96782.28;;;6.03;100.00
54994;BME280;40891;47.242;8.648;2023-12-20T08:38:37;96789.72;;;6.10;100.00
54994;BME280;40891;47.242;8.648;2023-12-20T08:41:03;96785.91;;;6.27;100.00
54994;BME280;40891;47.242;8.648;2023-12-20T08:43:31;96784.72;;;6.28;100.00
54994;BME280;40891;47.242;8.648;2023-12-20T08:45:57;96786.69;;;6.28;100.00
54994;BME280;40891;47.242;8.648;2023-12-20T08:48:22;96794.94;;;6.31;100.00
54994;BME280;40891;47.242;8.648;2023-12-20T08:50:47;96801.25;;;6.32;100.00
54994;BME280;40891;47.242;8.648;2023-12-20T08:53:15;96803.28;;;6.28;100.00
54994;BME280;40891;47.242;8.648;2023-12-20T08:55:41;96788.22;;;6.32;100.00
54994;BME280;40891;47.242;8.648;2023-12-20T08:58:07;96794.19;;;6.27;100.00
54994;BME280;40891;47.242;8.648;2023-12-20T09:00:33;96793.00;;;6.28;100.00
54994;BME280;40891;47.242;8.648;2023-12-20T09:02:59;96789.16;;;6.22;100.00
54994;BME280;40891;47.242;8.648;2023-12-20T09:05:24;96787.56;;;6.25;100.00
54994;BME280;40891;47.242;8.648;2023-12-20T09:07:50;96798.63;;;6.21;100.00
54994;BME280;40891;47.242;8.648;2023-12-20T09:10:15;96792.59;;;6.30;100.00
54994;BME280;40891;47.242;8.648;2023-12-20T09:12:40;96788.41;;;6.18;100.00
54994;BME280;40891;47.242;8.648;2023-12-20T09:15:07;96790.72;;;6.23;100.00
54994;BME280;40891;47.242;8.648;2023-12-20T09:17:33;96793.19;;;6.14;100.00
54994;BME280;40891;47.242;8.648;2023-12-20T09:19:58;96787.81;;;6.34;100.00
54994;BME280;40891;47.242;8.648;2023-12-20T09:22:25;96786.25;;;6.33;100.00
54994;BME280;40891;47.242;8.648;2023-12-20T09:24:50;96781.97;;;6.28;100.00
54994;BME280;40891;47.242;8.648;2023-12-20T09:27:15;96786.78;;;6.21;100.00
54994;BME280;40891;47.242;8.648;2023-12-20T09:29:40;96784.47;;;6.19;100.00
54994;BME280;40891;47.242;8.648;2023-12-20T09:32:06;96783.22;;;6.24;100.00
54994;BME280;40891;47.242;8.648;2023-12-20T09:34:31;96790.22;;;6.32;100.00
54994;BME280;40891;47.242;8.648;2023-12-20T09:36:56;96787.72;;;6.41;100.00
54994;BME280;40891;47.242;8.648;2023-12-20T09:39:22;96790.78;;;6.46;100.00
54994;BME280;40891;47.242;8.648;2023-12-20T09:42:01;96795.47;;;6.49;100.00
54994;BME280;40891;47.242;8.648;2023-12-20T09:44:27;96796.72;;;6.45;100.00
54994;BME280;40891;47.242;8.648;2023-12-20T09:46:52;96784.81;;;6.51;100.00
54994;BME280;40891;47.242;8.648;2023-12-20T09:49:19;96800.13;;;6.56;100.00
54994;BME280;40891;47.242;8.648;2023-12-20T09:51:46;96806.06;;;6.54;100.00
54994;BME280;40891;47.242;8.648;2023-12-20T09:54:16;96795.44;;;6.53;100.00
54994;BME280;40891;47.242;8.648;2023-12-20T09:56:42;96795.66;;;6.65;100.00
54994;BME280;40891;47.242;8.648;2023-12-20T09:59:07;96786.22;;;6.90;100.00
54994;BME280;40891;47.242;8.648;2023-12-20T10:01:34;96781.66;;;7.03;100.00
54994;BME280;40891;47.242;8.648;2023-12-20T10:04:00;96778.91;;;7.03;100.00
54994;BME280;40891;47.242;8.648;2023-12-20T10:06:25;96770.66;;;6.99;100.00
54994;BME280;40891;47.242;8.648;2023-12-20T10:08:51;96780.69;;;6.90;100.00
54994;BME280;40891;47.242;8.648;2023-12-20T10:11:18;96777.31;;;7.02;100.00
54994;BME280;40891;47.242;8.648;2023-12-20T10:13:45;96781.19;;;7.31;100.00
54994;BME280;40891;47.242;8.648;2023-12-20T10:16:12;96783.31;;;7.43;100.00
54994;BME280;40891;47.242;8.648;2023-12-20T10:18:37;96789.63;;;7.43;100.00
54994;BME280;40891;47.242;8.648;2023-12-20T10:21:03;96780.56;;;7.43;100.00
54994;BME280;40891;47.242;8.648;2023-12-20T10:23:29;96780.63;;;7.39;100.00
54994;BME280;40891;47.242;8.648;2023-12-20T10:25:57;96779.25;;;7.28;100.00
54994;BME280;40891;47.242;8.648;2023-12-20T10:28:23;96789.09;;;7.06;100.00
54994;BME280;40891;47.242;8.648;2023-12-20T10:30:55;96778.91;;;7.03;100.00
54994;BME280;40891;47.242;8.648;2023-12-20T10:33:24;96775.72;;;6.77;100.00
54994;BME280;40891;47.242;8.648;2023-12-20T10:35:52;96768.84;;;6.89;100.00
54994;BME280;40891;47.242;8.648;2023-12-20T10:38:17;96770.09;;;6.84;100.00
54994;BME280;40891;47.242;8.648;2023-12-20T10:40:45;96765.16;;;6.72;100.00
54994;BME280;40891;47.242;8.648;2023-12-20T10:43:11;96759.63;;;6.96;100.00
54994;BME280;40891;47.242;8.648;2023-12-20T10:45:36;96760.91;;;6.91;100.00
54994;BME280;40891;47.242;8.648;2023-12-20T10:48:02;96751.72;;;6.98;100.00
54994;BME280;40891;47.242;8.648;2023-12-20T10:50:28;96747.88;;;6.92;100.00
54994;BME280;40891;47.242;8.648;2023-12-20T10:52:55;96740.69;;;6.98;100.00
54994;BME280;40891;47.242;8.648;2023-12-20T10:55:22;96737.47;;;6.99;100.00
54994;BME280;40891;47.242;8.648;2023-12-20T10:57:50;96732.91;;;7.12;100.00
54994;BME280;40891;47.242;8.648;2023-12-20T11:00:17;96737.78;;;7.05;100.00
54994;BME280;40891;47.242;8.648;2023-12-20T11:02:43;96730.69;;;7.04;100.00
54994;BME280;40891;47.242;8.648;2023-12-20T11:08:28;96727.44;;;7.09;100.00
54994;BME280;40891;47.242;8.648;2023-12-20T11:11:09;96726.91;;;6.94;100.00
54994;BME280;40891;47.242;8.648;2023-12-20T11:13:44;96722.88;;;6.99;100.00
54994;BME280;40891;47.242;8.648;2023-12-20T11:16:13;96715.47;;;7.15;100.00
54994;BME280;40891;47.242;8.648;2023-12-20T11:18:40;96713.97;;;7.11;100.00
54994;BME280;40891;47.242;8.648;2023-12-20T11:21:05;96712.97;;;7.01;100.00
54994;BME280;40891;47.242;8.648;2023-12-20T11:23:32;96707.75;;;7.07;100.00
54994;BME280;40891;47.242;8.648;2023-12-20T11:25:59;96706.91;;;7.10;100.00
54994;BME280;40891;47.242;8.648;2023-12-20T11:28:26;96708.16;;;7.05;100.00
54994;BME280;40891;47.242;8.648;2023-12-20T11:30:53;96704.91;;;7.10;100.00
54994;BME280;40891;47.242;8.648;2023-12-20T11:33:24;96697.25;;;7.18;100.00
54994;BME280;40891;47.242;8.648;2023-12-20T11:35:49;96695.94;;;7.26;100.00
54994;BME280;40891;47.242;8.648;2023-12-20T11:38:15;96706.91;;;7.10;100.00
54994;BME280;40891;47.242;8.648;2023-12-20T11:40:43;96705.94;;;6.97;100.00
54994;BME280;40891;47.242;8.648;2023-12-20T11:43:09;96708.81;;;6.90;100.00
54994;BME280;40891;47.242;8.648;2023-12-20T11:45:34;96712.41;;;6.86;100.00
54994;BME280;40891;47.242;8.648;2023-12-20T11:48:01;96711.22;;;6.88;100.00
54994;BME280;40891;47.242;8.648;2023-12-20T11:50:28;96702.59;;;6.85;100.00
54994;BME280;40891;47.242;8.648;2023-12-20T11:52:55;96707.38;;;6.81;100.00
54994;BME280;40891;47.242;8.648;2023-12-20T11:55:21;96703.53;;;6.75;100.00
54994;BME280;40891;47.242;8.648;2023-12-20T11:57:50;96704.00;;;6.70;100.00
54994;BME280;40891;47.242;8.648;2023-12-20T12:00:16;96704.38;;;6.72;100.00
54994;BME280;40891;47.242;8.648;2023-12-20T12:02:42;96707.25;;;6.65;100.00
54994;BME280;40891;47.242;8.648;2023-12-20T12:05:08;96702.84;;;6.68;100.00
54994;BME280;40891;47.242;8.648;2023-12-20T12:07:36;96698.13;;;6.68;100.00
54994;BME280;40891;47.242;8.648;2023-12-20T12:10:02;96706.06;;;6.66;100.00
54994;BME280;40891;47.242;8.648;2023-12-20T12:12:28;96705.88;;;6.77;100.00
54994;BME280;40891;47.242;8.648;2023-12-20T12:14:55;96695.00;;;6.66;100.00
54994;BME280;40891;47.242;8.648;2023-12-20T12:17:21;96697.19;;;6.78;100.00
54994;BME280;40891;47.242;8.648;2023-12-20T12:19:47;96693.31;;;6.72;100.00
54994;BME280;40891;47.242;8.648;2023-12-20T12:22:14;96699.31;;;6.67;100.00
54994;BME280;40891;47.242;8.648;2023-12-20T12:24:41;96697.44;;;6.61;100.00
54994;BME280;40891;47.242;8.648;2023-12-20T12:27:07;96696.97;;;6.66;100.00
54994;BME280;40891;47.242;8.648;2023-12-20T12:29:33;96703.03;;;6.57;100.00
54994;BME280;40891;47.242;8.648;2023-12-20T12:31:59;96699.19;;;6.51;100.00
54994;BME280;40891;47.242;8.648;2023-12-20T12:34:27;96698.47;;;6.47;100.00
54994;BME280;40891;47.242;8.648;2023-12-20T12:36:52;96702.47;;;6.43;100.00
54994;BME280;40891;47.242;8.648;2023-12-20T12:39:18;96700.13;;;6.41;100.00
54994;BME280;40891;47.242;8.648;2023-12-20T12:41:43;96700.75;;;6.52;100.00
54994;BME280;40891;47.242;8.648;2023-12-20T12:44:08;96704.69;;;6.51;100.00
54994;BME280;40891;47.242;8.648;2023-12-20T12:46:34;96705.56;;;6.48;100.00
54994;BME280;40891;47.242;8.648;2023-12-20T12:49:00;96705.50;;;6.52;100.00
54994;BME280;40891;47.242;8.648;2023-12-20T12:51:25;96703.88;;;6.54;100.00
54994;BME280;40891;47.242;8.648;2023-12-20T12:53:50;96705.06;;;6.53;100.00
54994;BME280;40891;47.242;8.648;2023-12-20T12:56:16;96703.50;;;6.52;100.00